sensor_id;sensor_type;location;lat;lon;timestamp;P1;durP1;ratioP1;P2;durP2;ratioP2
4555;SDS011;2290;48.674;9.018;2022-10-16T00:01:29;1.50;;;1.37;;
4555;SDS011;2290;48.674;9.018;2022-10-16T00:03:56;1.93;;;1.57;;
4555;SDS011;2290;48.674;9.018;2022-10-16T00:06:24;2.33;;;1.30;;
4555;SDS011;2290;48.674;9.018;2022-10-16T00:08:51;1.60;;;1.50;;
4555;SDS011;2290;48.674;9.018;2022-10-16T00:11:18;2.80;;;1.50;;
4555;SDS011;2290;48.674;9.018;2022-10-16T00:13:46;2.10;;;1.57;;
4555;SDS011;2290;48.674;9.018;2022-10-16T00:16:19;2.03;;;1.30;;
4555;SDS011;2290;48.674;9.018;2022-10-16T00:18:44;3.03;;;1.60;;
4555;SDS011;2290;48.674;9.018;2022-10-16T00:21:15;2.00;;;1.33;;
4555;SDS011;2290;48.674;9.018;2022-10-16T00:23:44;2.10;;;1.30;;
4555;SDS011;2290;48.674;9.018;2022-10-16T00:26:12;1.67;;;1.57;;
4555;SDS011;2290;48.674;9.018;2022-10-16T00:28:39;1.80;;;1.43;;
4555;SDS011;2290;48.674;9.018;2022-10-16T00:31:05;1.67;;;1.40;;
4555;SDS011;2290;48.674;9.018;2022-10-16T00:33:34;1.57;;;1.40;;
4555;SDS011;2290;48.674;9.018;2022-10-16T00:36:01;1.97;;;1.37;;
4555;SDS011;2290;48.674;9.018;2022-10-16T00:38:28;1.50;;;1.40;;
4555;SDS011;2290;48.674;9.018;2022-10-16T00:40:54;1.80;;;1.40;;
4555;SDS011;2290;48.674;9.018;2022-10-16T00:43:40;1.97;;;1.40;;
4555;SDS011;2290;48.674;9.018;2022-10-16T00:46:20;1.43;;;1.30;;
4555;SDS011;2290;48.674;9.018;2022-10-16T00:48:52;2.40;;;1.40;;
4555;SDS011;2290;48.674;9.018;2022-10-16T00:51:38;1.47;;;1.37;;
4555;SDS011;2290;48.674;9.018;2022-10-16T00:54:10;2.33;;;1.73;;
4555;SDS011;2290;48.674;9.018;2022-10-16T00:56:39;1.97;;;1.70;;
4555;SDS011;2290;48.674;9.018;2022-10-16T00:59:20;1.60;;;1.30;;
4555;SDS011;2290;48.674;9.018;2022-10-16T01:01:51;1.50;;;1.40;;
4555;SDS011;2290;48.674;9.018;2022-10-16T01:04:17;2.47;;;1.30;;
4555;SDS011;2290;48.674;9.018;2022-10-16T01:09:50;2.03;;;1.40;;
4555;SDS011;2290;48.674;9.018;2022-10-16T01:15:47;1.33;;;1.20;;
4555;SDS011;2290;48.674;9.018;2022-10-16T01:24:08;2.60;;;1.30;;
4555;SDS011;2290;48.674;9.018;2022-10-16T01:32:41;2.33;;;1.43;;
4555;SDS011;2290;48.674;9.018;2022-10-16T01:37:48;1.40;;;1.20;;
4555;SDS011;2290;48.674;9.018;2022-10-16T01:40:32;1.60;;;1.30;;
4555;SDS011;2290;48.674;9.018;2022-10-16T01:43:12;1.33;;;1.20;;
4555;SDS011;2290;48.674;9.018;2022-10-16T01:45:56;1.63;;;1.30;;
4555;SDS011;2290;48.674;9.018;2022-10-16T01:48:25;1.30;;;1.20;;
4555;SDS011;2290;48.674;9.018;2022-10-16T01:50:55;2.83;;;1.17;;
4555;SDS011;2290;48.674;9.018;2022-10-16T01:53:43;2.27;;;1.40;;
4555;SDS011;2290;48.674;9.018;2022-10-16T01:56:13;1.77;;;1.53;;
4555;SDS011;2290;48.674;9.018;2022-10-16T01:58:43;2.10;;;1.53;;
4555;SDS011;2290;48.674;9.018;2022-10-16T02:01:15;1.70;;;1.20;;
4555;SDS011;2290;48.674;9.018;2022-10-16T02:03:43;4.00;;;1.60;;
4555;SDS011;2290;48.674;9.018;2022-10-16T02:06:11;1.80;;;1.53;;
4555;SDS011;2290;48.674;9.018;2022-10-16T02:08:37;2.70;;;1.30;;
4555;SDS011;2290;48.674;9.018;2022-10-16T02:11:09;1.33;;;1.23;;
4555;SDS011;2290;48.674;9.018;2022-10-16T02:13:45;1.60;;;1.30;;
4555;SDS011;2290;48.674;9.018;2022-10-16T02:16:16;1.60;;;1.30;;
4555;SDS011;2290;48.674;9.018;2022-10-16T02:18:42;1.23;;;1.13;;
4555;SDS011;2290;48.674;9.018;2022-10-16T02:21:13;1.30;;;1.20;;
4555;SDS011;2290;48.674;9.018;2022-10-16T02:23:57;1.33;;;1.23;;
4555;SDS011;2290;48.674;9.018;2022-10-16T02:26:49;1.77;;;1.33;;
4555;SDS011;2290;48.674;9.018;2022-10-16T02:29:33;1.53;;;1.40;;
4555;SDS011;2290;48.674;9.018;2022-10-16T02:32:15;2.07;;;1.30;;
4555;SDS011;2290;48.674;9.018;2022-10-16T02:34:48;2.63;;;1.50;;
4555;SDS011;2290;48.674;9.018;2022-10-16T02:37:15;3.30;;;1.10;;
4555;SDS011;2290;48.674;9.018;2022-10-16T02:39:42;2.23;;;1.30;;
4555;SDS011;2290;48.674;9.018;2022-10-16T02:42:12;1.73;;;1.63;;
4555;SDS011;2290;48.674;9.018;2022-10-16T02:44:38;1.43;;;1.20;;
4555;SDS011;2290;48.674;9.018;2022-10-16T02:47:06;1.77;;;1.27;;
4555;SDS011;2290;48.674;9.018;2022-10-16T02:49:31;1.60;;;1.30;;
4555;SDS011;2290;48.674;9.018;2022-10-16T02:51:57;1.23;;;1.13;;
4555;SDS011;2290;48.674;9.018;2022-10-16T02:54:24;3.00;;;1.30;;
4555;SDS011;2290;48.674;9.018;2022-10-16T02:56:49;1.67;;;1.20;;
4555;SDS011;2290;48.674;9.018;2022-10-16T02:59:15;1.80;;;1.43;;
4555;SDS011;2290;48.674;9.018;2022-10-16T03:01:42;1.50;;;1.40;;
4555;SDS011;2290;48.674;9.018;2022-10-16T03:04:07;1.63;;;1.10;;
4555;SDS011;2290;48.674;9.018;2022-10-16T03:06:33;2.23;;;1.43;;
4555;SDS011;2290;48.674;9.018;2022-10-16T03:08:59;1.30;;;1.20;;
4555;SDS011;2290;48.674;9.018;2022-10-16T03:11:26;1.70;;;1.30;;
4555;SDS011;2290;48.674;9.018;2022-10-16T03:13:51;1.37;;;1.27;;
4555;SDS011;2290;48.674;9.018;2022-10-16T03:16:17;2.60;;;1.40;;
4555;SDS011;2290;48.674;9.018;2022-10-16T03:18:42;2.53;;;1.17;;
4555;SDS011;2290;48.674;9.018;2022-10-16T03:21:08;1.63;;;1.40;;
4555;SDS011;2290;48.674;9.018;2022-10-16T03:23:34;1.77;;;1.23;;
4555;SDS011;2290;48.674;9.018;2022-10-16T03:25:59;1.30;;;1.20;;
4555;SDS011;2290;48.674;9.018;2022-10-16T03:28:25;1.30;;;1.20;;
4555;SDS011;2290;48.674;9.018;2022-10-16T03:30:51;4.47;;;1.30;;
4555;SDS011;2290;48.674;9.018;2022-10-16T03:33:16;1.17;;;1.07;;
4555;SDS011;2290;48.674;9.018;2022-10-16T03:35:50;1.27;;;1.17;;
4555;SDS011;2290;48.674;9.018;2022-10-16T03:38:22;1.67;;;1.30;;
4555;SDS011;2290;48.674;9.018;2022-10-16T03:40:50;1.33;;;1.23;;
4555;SDS011;2290;48.674;9.018;2022-10-16T03:43:15;1.50;;;1.40;;
4555;SDS011;2290;48.674;9.018;2022-10-16T03:45:42;2.10;;;1.40;;
4555;SDS011;2290;48.674;9.018;2022-10-16T03:48:08;1.30;;;1.20;;
4555;SDS011;2290;48.674;9.018;2022-10-16T03:50:37;1.50;;;1.40;;
4555;SDS011;2290;48.674;9.018;2022-10-16T03:53:03;1.37;;;1.27;;
4555;SDS011;2290;48.674;9.018;2022-10-16T03:55:29;3.93;;;1.60;;
4555;SDS011;2290;48.674;9.018;2022-10-16T03:57:55;1.60;;;1.30;;
4555;SDS011;2290;48.674;9.018;2022-10-16T04:00:21;1.80;;;1.50;;
4555;SDS011;2290;48.674;9.018;2022-10-16T04:02:47;1.60;;;1.50;;
4555;SDS011;2290;48.674;9.018;2022-10-16T04:05:12;4.27;;;1.40;;
4555;SDS011;2290;48.674;9.018;2022-10-16T04:07:38;1.50;;;1.30;;
4555;SDS011;2290;48.674;9.018;2022-10-16T04:10:04;1.57;;;1.47;;
4555;SDS011;2290;48.674;9.018;2022-10-16T04:12:29;1.83;;;1.50;;
4555;SDS011;2290;48.674;9.018;2022-10-16T04:14:56;2.47;;;1.60;;
4555;SDS011;2290;48.674;9.018;2022-10-16T04:17:22;1.43;;;1.30;;
4555;SDS011;2290;48.674;9.018;2022-10-16T04:19:47;1.30;;;1.20;;
4555;SDS011;2290;48.674;9.018;2022-10-16T04:22:13;2.07;;;1.40;;
4555;SDS011;2290;48.674;9.018;2022-10-16T04:24:38;2.30;;;1.53;;
4555;SDS011;2290;48.674;9.018;2022-10-16T04:27:04;1.40;;;1.30;;
4555;SDS011;2290;48.674;9.018;2022-10-16T04:29:31;1.90;;;1.33;;
4555;SDS011;2290;48.674;9.018;2022-10-16T04:31:56;1.97;;;1.40;;
4555;SDS011;2290;48.674;9.018;2022-10-16T04:34:23;1.33;;;1.23;;
4555;SDS011;2290;48.674;9.018;2022-10-16T04:36:49;4.30;;;1.80;;
4555;SDS011;2290;48.674;9.018;2022-10-16T04:39:15;1.27;;;1.17;;
4555;SDS011;2290;48.674;9.018;2022-10-16T04:41:41;1.40;;;1.30;;
4555;SDS011;2290;48.674;9.018;2022-10-16T04:44:06;1.33;;;1.23;;
4555;SDS011;2290;48.674;9.018;2022-10-16T04:46:32;2.50;;;1.33;;
4555;SDS011;2290;48.674;9.018;2022-10-16T04:48:58;1.50;;;1.30;;
4555;SDS011;2290;48.674;9.018;2022-10-16T04:51:23;1.23;;;1.13;;
4555;SDS011;2290;48.674;9.018;2022-10-16T04:53:50;1.33;;;1.07;;
4555;SDS011;2290;48.674;9.018;2022-10-16T04:56:17;2.30;;;1.50;;
4555;SDS011;2290;48.674;9.018;2022-10-16T04:58:44;1.57;;;1.40;;
4555;SDS011;2290;48.674;9.018;2022-10-16T05:01:10;1.73;;;1.63;;
4555;SDS011;2290;48.674;9.018;2022-10-16T05:03:37;6.83;;;1.60;;
4555;SDS011;2290;48.674;9.018;2022-10-16T05:06:04;2.27;;;1.43;;
4555;SDS011;2290;48.674;9.018;2022-10-16T05:08:31;1.83;;;1.30;;
4555;SDS011;2290;48.674;9.018;2022-10-16T05:10:58;2.00;;;1.67;;
4555;SDS011;2290;48.674;9.018;2022-10-16T05:13:24;1.97;;;1.60;;
4555;SDS011;2290;48.674;9.018;2022-10-16T05:15:49;2.77;;;1.40;;
4555;SDS011;2290;48.674;9.018;2022-10-16T05:18:15;2.03;;;1.50;;
4555;SDS011;2290;48.674;9.018;2022-10-16T05:20:41;2.07;;;1.47;;
4555;SDS011;2290;48.674;9.018;2022-10-16T05:23:09;1.80;;;1.40;;
4555;SDS011;2290;48.674;9.018;2022-10-16T05:25:38;1.10;;;1.00;;
4555;SDS011;2290;48.674;9.018;2022-10-16T05:28:03;1.97;;;1.40;;
4555;SDS011;2290;48.674;9.018;2022-10-16T05:30:29;1.33;;;1.10;;
4555;SDS011;2290;48.674;9.018;2022-10-16T05:32:55;1.60;;;1.47;;
4555;SDS011;2290;48.674;9.018;2022-10-16T05:35:20;1.63;;;1.27;;
4555;SDS011;2290;48.674;9.018;2022-10-16T05:37:46;5.20;;;1.30;;
4555;SDS011;2290;48.674;9.018;2022-10-16T05:40:12;1.50;;;1.27;;
4555;SDS011;2290;48.674;9.018;2022-10-16T05:42:39;4.70;;;1.50;;
4555;SDS011;2290;48.674;9.018;2022-10-16T05:45:07;2.23;;;1.53;;
4555;SDS011;2290;48.674;9.018;2022-10-16T05:47:34;1.50;;;1.27;;
4555;SDS011;2290;48.674;9.018;2022-10-16T05:50:00;2.33;;;1.50;;
4555;SDS011;2290;48.674;9.018;2022-10-16T05:52:26;3.90;;;1.20;;
4555;SDS011;2290;48.674;9.018;2022-10-16T05:54:52;3.60;;;3.03;;
4555;SDS011;2290;48.674;9.018;2022-10-16T05:57:17;1.50;;;1.40;;
4555;SDS011;2290;48.674;9.018;2022-10-16T05:59:43;1.40;;;1.10;;
4555;SDS011;2290;48.674;9.018;2022-10-16T06:02:11;1.23;;;1.10;;
4555;SDS011;2290;48.674;9.018;2022-10-16T06:04:40;2.83;;;1.47;;
4555;SDS011;2290;48.674;9.018;2022-10-16T06:07:06;1.70;;;1.20;;
4555;SDS011;2290;48.674;9.018;2022-10-16T06:09:31;1.60;;;1.20;;
4555;SDS011;2290;48.674;9.018;2022-10-16T06:11:57;1.40;;;1.10;;
4555;SDS011;2290;48.674;9.018;2022-10-16T06:14:23;1.77;;;1.50;;
4555;SDS011;2290;48.674;9.018;2022-10-16T06:16:49;1.83;;;1.57;;
4555;SDS011;2290;48.674;9.018;2022-10-16T06:19:14;3.77;;;1.53;;
4555;SDS011;2290;48.674;9.018;2022-10-16T06:21:41;1.50;;;1.40;;
4555;SDS011;2290;48.674;9.018;2022-10-16T06:24:08;1.50;;;1.40;;
4555;SDS011;2290;48.674;9.018;2022-10-16T06:26:35;1.90;;;1.47;;
4555;SDS011;2290;48.674;9.018;2022-10-16T06:29:00;2.50;;;1.47;;
4555;SDS011;2290;48.674;9.018;2022-10-16T06:31:28;1.90;;;1.37;;
4555;SDS011;2290;48.674;9.018;2022-10-16T06:33:57;1.63;;;1.50;;
4555;SDS011;2290;48.674;9.018;2022-10-16T06:36:23;2.63;;;1.40;;
4555;SDS011;2290;48.674;9.018;2022-10-16T06:38:49;2.70;;;1.60;;
4555;SDS011;2290;48.674;9.018;2022-10-16T06:41:16;1.40;;;1.20;;
4555;SDS011;2290;48.674;9.018;2022-10-16T06:43:44;2.10;;;1.43;;
4555;SDS011;2290;48.674;9.018;2022-10-16T06:46:11;2.40;;;1.63;;
4555;SDS011;2290;48.674;9.018;2022-10-16T06:48:40;1.63;;;1.30;;
4555;SDS011;2290;48.674;9.018;2022-10-16T06:51:08;1.60;;;1.50;;
4555;SDS011;2290;48.674;9.018;2022-10-16T06:53:34;1.90;;;1.50;;
4555;SDS011;2290;48.674;9.018;2022-10-16T06:56:10;1.77;;;1.60;;
4555;SDS011;2290;48.674;9.018;2022-10-16T06:58:42;1.53;;;1.30;;
4555;SDS011;2290;48.674;9.018;2022-10-16T07:01:08;1.60;;;1.50;;
4555;SDS011;2290;48.674;9.018;2022-10-16T07:03:38;2.40;;;1.27;;
4555;SDS011;2290;48.674;9.018;2022-10-16T07:06:07;6.57;;;1.30;;
4555;SDS011;2290;48.674;9.018;2022-10-16T07:08:36;5.03;;;1.77;;
4555;SDS011;2290;48.674;9.018;2022-10-16T07:11:08;1.47;;;1.37;;
4555;SDS011;2290;48.674;9.018;2022-10-16T07:13:38;1.63;;;1.43;;
4555;SDS011;2290;48.674;9.018;2022-10-16T07:16:08;2.60;;;1.67;;
4555;SDS011;2290;48.674;9.018;2022-10-16T07:18:36;2.00;;;1.60;;
4555;SDS011;2290;48.674;9.018;2022-10-16T07:21:04;1.97;;;1.50;;
4555;SDS011;2290;48.674;9.018;2022-10-16T07:23:50;1.60;;;1.50;;
4555;SDS011;2290;48.674;9.018;2022-10-16T07:26:17;1.43;;;1.33;;
4555;SDS011;2290;48.674;9.018;2022-10-16T07:28:43;3.00;;;2.73;;
4555;SDS011;2290;48.674;9.018;2022-10-16T07:31:10;1.40;;;1.30;;
4555;SDS011;2290;48.674;9.018;2022-10-16T07:33:41;2.07;;;1.70;;
4555;SDS011;2290;48.674;9.018;2022-10-16T07:36:13;2.70;;;1.50;;
4555;SDS011;2290;48.674;9.018;2022-10-16T07:38:40;3.00;;;1.57;;
4555;SDS011;2290;48.674;9.018;2022-10-16T07:41:09;1.87;;;1.60;;
4555;SDS011;2290;48.674;9.018;2022-10-16T07:43:37;2.10;;;1.67;;
4555;SDS011;2290;48.674;9.018;2022-10-16T07:46:02;1.50;;;1.40;;
4555;SDS011;2290;48.674;9.018;2022-10-16T07:48:30;1.40;;;1.30;;
4555;SDS011;2290;48.674;9.018;2022-10-16T07:50:58;3.83;;;1.60;;
4555;SDS011;2290;48.674;9.018;2022-10-16T07:53:25;1.90;;;1.50;;
4555;SDS011;2290;48.674;9.018;2022-10-16T07:55:50;1.50;;;1.40;;
4555;SDS011;2290;48.674;9.018;2022-10-16T07:58:17;1.50;;;1.40;;
4555;SDS011;2290;48.674;9.018;2022-10-16T08:00:43;1.87;;;1.33;;
4555;SDS011;2290;48.674;9.018;2022-10-16T08:03:09;2.70;;;1.60;;
4555;SDS011;2290;48.674;9.018;2022-10-16T08:05:35;2.37;;;1.60;;
4555;SDS011;2290;48.674;9.018;2022-10-16T08:08:01;1.70;;;1.47;;
4555;SDS011;2290;48.674;9.018;2022-10-16T08:10:27;1.87;;;1.67;;
4555;SDS011;2290;48.674;9.018;2022-10-16T08:12:54;2.70;;;1.70;;
4555;SDS011;2290;48.674;9.018;2022-10-16T08:15:20;2.17;;;1.57;;
4555;SDS011;2290;48.674;9.018;2022-10-16T08:17:59;4.13;;;2.10;;
4555;SDS011;2290;48.674;9.018;2022-10-16T08:20:26;1.63;;;1.43;;
4555;SDS011;2290;48.674;9.018;2022-10-16T08:22:54;2.33;;;1.60;;
4555;SDS011;2290;48.674;9.018;2022-10-16T08:25:24;1.70;;;1.53;;
4555;SDS011;2290;48.674;9.018;2022-10-16T08:27:49;3.20;;;1.40;;
4555;SDS011;2290;48.674;9.018;2022-10-16T08:30:16;1.90;;;1.30;;
4555;SDS011;2290;48.674;9.018;2022-10-16T08:32:43;1.53;;;1.30;;
4555;SDS011;2290;48.674;9.018;2022-10-16T08:35:09;2.90;;;1.60;;
4555;SDS011;2290;48.674;9.018;2022-10-16T08:37:35;1.70;;;1.60;;
4555;SDS011;2290;48.674;9.018;2022-10-16T08:40:02;2.50;;;1.40;;
4555;SDS011;2290;48.674;9.018;2022-10-16T08:48:11;1.60;;;1.50;;
4555;SDS011;2290;48.674;9.018;2022-10-16T08:50:48;1.80;;;1.30;;
4555;SDS011;2290;48.674;9.018;2022-10-16T08:53:18;2.17;;;1.70;;
4555;SDS011;2290;48.674;9.018;2022-10-16T08:55:50;1.97;;;1.23;;
4555;SDS011;2290;48.674;9.018;2022-10-16T08:58:19;3.97;;;2.07;;
4555;SDS011;2290;48.674;9.018;2022-10-16T09:00:54;2.03;;;1.63;;
4555;SDS011;2290;48.674;9.018;2022-10-16T09:17:14;2.23;;;1.40;;
4555;SDS011;2290;48.674;9.018;2022-10-16T09:22:47;1.60;;;1.50;;
4555;SDS011;2290;48.674;9.018;2022-10-16T09:25:15;1.27;;;1.17;;
4555;SDS011;2290;48.674;9.018;2022-10-16T09:27:44;1.40;;;1.30;;
4555;SDS011;2290;48.674;9.018;2022-10-16T09:30:16;1.90;;;1.80;;
4555;SDS011;2290;48.674;9.018;2022-10-16T09:32:44;1.40;;;1.20;;
4555;SDS011;2290;48.674;9.018;2022-10-16T09:35:17;1.60;;;1.50;;
4555;SDS011;2290;48.674;9.018;2022-10-16T09:37:45;5.20;;;2.00;;
4555;SDS011;2290;48.674;9.018;2022-10-16T09:40:24;1.47;;;1.37;;
4555;SDS011;2290;48.674;9.018;2022-10-16T09:42:52;2.07;;;1.50;;
4555;SDS011;2290;48.674;9.018;2022-10-16T09:45:52;2.37;;;1.70;;
4555;SDS011;2290;48.674;9.018;2022-10-16T09:48:19;3.00;;;1.63;;
4555;SDS011;2290;48.674;9.018;2022-10-16T09:51:04;2.30;;;1.50;;
4555;SDS011;2290;48.674;9.018;2022-10-16T09:53:44;2.13;;;1.73;;
4555;SDS011;2290;48.674;9.018;2022-10-16T09:56:23;2.07;;;1.80;;
4555;SDS011;2290;48.674;9.018;2022-10-16T09:58:54;1.50;;;1.40;;
4555;SDS011;2290;48.674;9.018;2022-10-16T10:01:47;2.10;;;1.47;;
4555;SDS011;2290;48.674;9.018;2022-10-16T10:04:16;2.80;;;1.40;;
4555;SDS011;2290;48.674;9.018;2022-10-16T10:06:49;1.60;;;1.50;;
4555;SDS011;2290;48.674;9.018;2022-10-16T10:09:26;1.60;;;1.50;;
4555;SDS011;2290;48.674;9.018;2022-10-16T10:12:20;2.50;;;1.70;;
4555;SDS011;2290;48.674;9.018;2022-10-16T10:14:54;2.20;;;1.40;;
4555;SDS011;2290;48.674;9.018;2022-10-16T10:17:23;1.60;;;1.50;;
4555;SDS011;2290;48.674;9.018;2022-10-16T10:19:57;2.23;;;1.87;;
4555;SDS011;2290;48.674;9.018;2022-10-16T10:38:57;2.20;;;1.67;;
4555;SDS011;2290;48.674;9.018;2022-10-16T10:44:37;1.50;;;1.30;;
4555;SDS011;2290;48.674;9.018;2022-10-16T11:02:14;1.70;;;1.50;;
4555;SDS011;2290;48.674;9.018;2022-10-16T11:04:47;2.03;;;1.60;;
4555;SDS011;2290;48.674;9.018;2022-10-16T11:07:36;2.40;;;1.77;;
4555;SDS011;2290;48.674;9.018;2022-10-16T11:10:28;1.87;;;1.50;;
4555;SDS011;2290;48.674;9.018;2022-10-16T11:16:22;2.50;;;1.70;;
4555;SDS011;2290;48.674;9.018;2022-10-16T11:18:59;1.93;;;1.40;;
4555;SDS011;2290;48.674;9.018;2022-10-16T11:27:43;1.87;;;1.50;;
4555;SDS011;2290;48.674;9.018;2022-10-16T11:30:20;1.80;;;1.50;;
4555;SDS011;2290;48.674;9.018;2022-10-16T11:32:56;1.63;;;1.50;;
4555;SDS011;2290;48.674;9.018;2022-10-16T11:38:39;2.03;;;1.73;;
4555;SDS011;2290;48.674;9.018;2022-10-16T11:41:21;2.17;;;1.60;;
4555;SDS011;2290;48.674;9.018;2022-10-16T11:47:07;1.57;;;1.47;;
4555;SDS011;2290;48.674;9.018;2022-10-16T11:49:58;2.00;;;1.80;;
4555;SDS011;2290;48.674;9.018;2022-10-16T11:55:40;2.83;;;1.60;;
4555;SDS011;2290;48.674;9.018;2022-10-16T11:58:20;1.67;;;1.43;;
4555;SDS011;2290;48.674;9.018;2022-10-16T12:01:38;2.20;;;1.70;;
4555;SDS011;2290;48.674;9.018;2022-10-16T12:04:24;3.00;;;1.70;;
4555;SDS011;2290;48.674;9.018;2022-10-16T12:07:39;3.40;;;1.80;;
4555;SDS011;2290;48.674;9.018;2022-10-16T12:10:24;6.70;;;1.90;;
4555;SDS011;2290;48.674;9.018;2022-10-16T12:12:52;2.07;;;1.60;;
4555;SDS011;2290;48.674;9.018;2022-10-16T12:15:28;2.60;;;1.50;;
4555;SDS011;2290;48.674;9.018;2022-10-16T12:17:57;3.13;;;1.60;;
4555;SDS011;2290;48.674;9.018;2022-10-16T12:20:27;2.10;;;1.80;;
4555;SDS011;2290;48.674;9.018;2022-10-16T12:22:59;1.97;;;1.57;;
4555;SDS011;2290;48.674;9.018;2022-10-16T12:25:29;1.60;;;1.50;;
4555;SDS011;2290;48.674;9.018;2022-10-16T12:30:41;4.07;;;1.80;;
4555;SDS011;2290;48.674;9.018;2022-10-16T12:33:24;3.93;;;1.80;;
4555;SDS011;2290;48.674;9.018;2022-10-16T12:35:54;1.70;;;1.57;;
4555;SDS011;2290;48.674;9.018;2022-10-16T12:38:25;2.00;;;1.77;;
4555;SDS011;2290;48.674;9.018;2022-10-16T12:51:56;1.80;;;1.40;;
4555;SDS011;2290;48.674;9.018;2022-10-16T12:54:25;1.90;;;1.70;;
4555;SDS011;2290;48.674;9.018;2022-10-16T13:05:55;2.50;;;1.80;;
4555;SDS011;2290;48.674;9.018;2022-10-16T13:23:01;1.93;;;1.73;;
4555;SDS011;2290;48.674;9.018;2022-10-16T13:26:13;2.70;;;1.80;;
4555;SDS011;2290;48.674;9.018;2022-10-16T13:28:44;1.70;;;1.60;;
4555;SDS011;2290;48.674;9.018;2022-10-16T13:31:13;2.10;;;1.90;;
4555;SDS011;2290;48.674;9.018;2022-10-16T13:33:48;2.97;;;1.70;;
4555;SDS011;2290;48.674;9.018;2022-10-16T13:38:47;2.30;;;1.83;;
4555;SDS011;2290;48.674;9.018;2022-10-16T13:41:16;2.50;;;2.03;;
4555;SDS011;2290;48.674;9.018;2022-10-16T13:43:44;2.90;;;1.93;;
4555;SDS011;2290;48.674;9.018;2022-10-16T13:46:19;1.87;;;1.70;;
4555;SDS011;2290;48.674;9.018;2022-10-16T13:49:02;2.10;;;1.90;;
4555;SDS011;2290;48.674;9.018;2022-10-16T13:51:41;2.50;;;1.90;;
4555;SDS011;2290;48.674;9.018;2022-10-16T13:54:10;3.20;;;1.93;;
4555;SDS011;2290;48.674;9.018;2022-10-16T13:56:41;2.10;;;1.83;;
4555;SDS011;2290;48.674;9.018;2022-10-16T13:59:22;4.10;;;1.77;;
4555;SDS011;2290;48.674;9.018;2022-10-16T14:01:52;2.10;;;1.83;;
4555;SDS011;2290;48.674;9.018;2022-10-16T14:04:22;2.43;;;1.97;;
4555;SDS011;2290;48.674;9.018;2022-10-16T14:06:51;2.33;;;1.93;;
4555;SDS011;2290;48.674;9.018;2022-10-16T14:09:25;1.90;;;1.70;;
4555;SDS011;2290;48.674;9.018;2022-10-16T14:12:03;2.20;;;2.00;;
4555;SDS011;2290;48.674;9.018;2022-10-16T14:14:42;3.73;;;2.00;;
4555;SDS011;2290;48.674;9.018;2022-10-16T14:17:13;2.03;;;1.83;;
4555;SDS011;2290;48.674;9.018;2022-10-16T14:19:44;2.90;;;1.73;;
4555;SDS011;2290;48.674;9.018;2022-10-16T14:22:32;5.33;;;2.00;;
4555;SDS011;2290;48.674;9.018;2022-10-16T14:28:04;2.00;;;1.80;;
4555;SDS011;2290;48.674;9.018;2022-10-16T14:30:52;2.70;;;2.17;;
4555;SDS011;2290;48.674;9.018;2022-10-16T14:36:06;3.13;;;2.60;;
4555;SDS011;2290;48.674;9.018;2022-10-16T14:38:39;2.53;;;2.17;;
4555;SDS011;2290;48.674;9.018;2022-10-16T14:41:24;2.13;;;1.80;;
4555;SDS011;2290;48.674;9.018;2022-10-16T14:43:51;2.60;;;2.00;;
4555;SDS011;2290;48.674;9.018;2022-10-16T14:46:20;2.83;;;1.90;;
4555;SDS011;2290;48.674;9.018;2022-10-16T14:48:54;2.53;;;2.10;;
4555;SDS011;2290;48.674;9.018;2022-10-16T14:51:52;2.10;;;1.90;;
4555;SDS011;2290;48.674;9.018;2022-10-16T14:54:19;4.87;;;2.00;;
4555;SDS011;2290;48.674;9.018;2022-10-16T14:56:54;2.77;;;2.00;;
4555;SDS011;2290;48.674;9.018;2022-10-16T14:59:36;2.30;;;1.90;;
4555;SDS011;2290;48.674;9.018;2022-10-16T15:02:25;2.43;;;1.90;;
4555;SDS011;2290;48.674;9.018;2022-10-16T15:05:22;2.60;;;2.07;;
4555;SDS011;2290;48.674;9.018;2022-10-16T15:07:48;3.13;;;2.67;;
4555;SDS011;2290;48.674;9.018;2022-10-16T15:10:14;2.83;;;2.30;;
4555;SDS011;2290;48.674;9.018;2022-10-16T15:12:41;3.57;;;2.13;;
4555;SDS011;2290;48.674;9.018;2022-10-16T15:17:50;2.47;;;1.97;;
4555;SDS011;2290;48.674;9.018;2022-10-16T15:20:19;2.80;;;1.83;;
4555;SDS011;2290;48.674;9.018;2022-10-16T15:22:46;2.40;;;2.00;;
4555;SDS011;2290;48.674;9.018;2022-10-16T15:25:29;2.30;;;1.80;;
4555;SDS011;2290;48.674;9.018;2022-10-16T15:28:02;6.13;;;2.10;;
4555;SDS011;2290;48.674;9.018;2022-10-16T15:30:30;2.30;;;2.10;;
4555;SDS011;2290;48.674;9.018;2022-10-16T15:32:56;4.00;;;2.10;;
4555;SDS011;2290;48.674;9.018;2022-10-16T15:35:23;2.60;;;1.53;;
4555;SDS011;2290;48.674;9.018;2022-10-16T15:37:49;2.40;;;1.97;;
4555;SDS011;2290;48.674;9.018;2022-10-16T15:40:15;1.97;;;1.77;;
4555;SDS011;2290;48.674;9.018;2022-10-16T15:42:43;2.37;;;1.70;;
4555;SDS011;2290;48.674;9.018;2022-10-16T15:45:09;3.00;;;2.30;;
4555;SDS011;2290;48.674;9.018;2022-10-16T15:47:35;2.93;;;2.13;;
4555;SDS011;2290;48.674;9.018;2022-10-16T15:50:01;2.50;;;2.23;;
4555;SDS011;2290;48.674;9.018;2022-10-16T15:52:28;3.23;;;2.50;;
4555;SDS011;2290;48.674;9.018;2022-10-16T15:54:56;3.80;;;2.60;;
4555;SDS011;2290;48.674;9.018;2022-10-16T15:57:24;3.33;;;2.50;;
4555;SDS011;2290;48.674;9.018;2022-10-16T15:59:49;2.90;;;2.43;;
4555;SDS011;2290;48.674;9.018;2022-10-16T16:02:15;3.53;;;2.20;;
4555;SDS011;2290;48.674;9.018;2022-10-16T16:04:41;4.37;;;2.47;;
4555;SDS011;2290;48.674;9.018;2022-10-16T16:07:07;5.90;;;3.00;;
4555;SDS011;2290;48.674;9.018;2022-10-16T16:09:33;2.77;;;2.20;;
4555;SDS011;2290;48.674;9.018;2022-10-16T16:11:58;2.90;;;2.30;;
4555;SDS011;2290;48.674;9.018;2022-10-16T16:14:27;3.00;;;2.37;;
4555;SDS011;2290;48.674;9.018;2022-10-16T16:16:56;3.23;;;1.83;;
4555;SDS011;2290;48.674;9.018;2022-10-16T16:19:22;10.10;;;2.30;;
4555;SDS011;2290;48.674;9.018;2022-10-16T16:21:49;4.33;;;3.80;;
4555;SDS011;2290;48.674;9.018;2022-10-16T16:24:16;5.83;;;2.47;;
4555;SDS011;2290;48.674;9.018;2022-10-16T16:26:42;4.57;;;2.37;;
4555;SDS011;2290;48.674;9.018;2022-10-16T16:29:14;3.53;;;2.40;;
4555;SDS011;2290;48.674;9.018;2022-10-16T16:31:42;3.10;;;1.90;;
4555;SDS011;2290;48.674;9.018;2022-10-16T16:34:08;2.33;;;1.90;;
4555;SDS011;2290;48.674;9.018;2022-10-16T16:36:34;2.50;;;2.10;;
4555;SDS011;2290;48.674;9.018;2022-10-16T16:39:01;5.23;;;1.93;;
4555;SDS011;2290;48.674;9.018;2022-10-16T16:41:28;4.70;;;2.90;;
4555;SDS011;2290;48.674;9.018;2022-10-16T16:43:55;4.50;;;2.47;;
4555;SDS011;2290;48.674;9.018;2022-10-16T16:46:28;3.20;;;2.13;;
4555;SDS011;2290;48.674;9.018;2022-10-16T16:48:54;2.80;;;1.73;;
4555;SDS011;2290;48.674;9.018;2022-10-16T16:51:20;2.17;;;1.83;;
4555;SDS011;2290;48.674;9.018;2022-10-16T16:53:49;2.77;;;2.00;;
4555;SDS011;2290;48.674;9.018;2022-10-16T16:56:34;2.60;;;1.87;;
4555;SDS011;2290;48.674;9.018;2022-10-16T16:59:01;4.10;;;2.20;;
4555;SDS011;2290;48.674;9.018;2022-10-16T17:01:28;7.57;;;1.93;;
4555;SDS011;2290;48.674;9.018;2022-10-16T17:03:56;5.73;;;2.37;;
4555;SDS011;2290;48.674;9.018;2022-10-16T17:06:26;5.00;;;2.90;;
4555;SDS011;2290;48.674;9.018;2022-10-16T17:08:54;4.93;;;2.90;;
4555;SDS011;2290;48.674;9.018;2022-10-16T17:11:22;3.77;;;2.20;;
4555;SDS011;2290;48.674;9.018;2022-10-16T17:13:50;4.97;;;2.40;;
4555;SDS011;2290;48.674;9.018;2022-10-16T17:16:18;3.77;;;2.60;;
4555;SDS011;2290;48.674;9.018;2022-10-16T17:18:46;5.60;;;2.30;;
4555;SDS011;2290;48.674;9.018;2022-10-16T17:21:13;2.90;;;2.10;;
4555;SDS011;2290;48.674;9.018;2022-10-16T17:23:38;2.50;;;2.30;;
4555;SDS011;2290;48.674;9.018;2022-10-16T17:26:08;3.50;;;2.00;;
4555;SDS011;2290;48.674;9.018;2022-10-16T17:28:39;2.70;;;1.90;;
4555;SDS011;2290;48.674;9.018;2022-10-16T17:31:08;3.30;;;2.10;;
4555;SDS011;2290;48.674;9.018;2022-10-16T17:33:35;2.27;;;2.00;;
4555;SDS011;2290;48.674;9.018;2022-10-16T17:36:01;2.40;;;2.20;;
4555;SDS011;2290;48.674;9.018;2022-10-16T17:38:27;2.53;;;2.30;;
4555;SDS011;2290;48.674;9.018;2022-10-16T17:40:53;7.30;;;2.13;;
4555;SDS011;2290;48.674;9.018;2022-10-16T17:43:20;2.50;;;1.97;;
4555;SDS011;2290;48.674;9.018;2022-10-16T17:45:46;2.33;;;1.97;;
4555;SDS011;2290;48.674;9.018;2022-10-16T17:48:12;2.23;;;1.90;;
4555;SDS011;2290;48.674;9.018;2022-10-16T17:50:41;4.10;;;2.20;;
4555;SDS011;2290;48.674;9.018;2022-10-16T17:53:07;2.13;;;1.93;;
4555;SDS011;2290;48.674;9.018;2022-10-16T17:55:36;6.87;;;2.10;;
4555;SDS011;2290;48.674;9.018;2022-10-16T17:58:03;7.80;;;2.33;;
4555;SDS011;2290;48.674;9.018;2022-10-16T18:00:29;4.10;;;2.37;;